createdAt,value
2023-05-05T00:01:12.229Z,51.06
2023-05-05T00:03:42.869Z,52.06
2023-05-05T00:06:13.129Z,52.16
2023-05-05T00:08:46.444Z,51.77
2023-05-05T00:11:16.321Z,52.09
2023-05-05T00:13:46.216Z,51.73
2023-05-05T00:16:16.163Z,52.08
2023-05-05T00:18:46.074Z,52.15
2023-05-05T00:21:16.271Z,52.54
2023-05-05T00:23:48.708Z,52.29
2023-05-05T00:26:18.567Z,52.36
2023-05-05T00:28:51.310Z,52.21
2023-05-05T00:31:21.296Z,52.22
2023-05-05T00:33:53.499Z,52.98
2023-05-05T00:36:23.565Z,52.32
2023-05-05T00:38:56.093Z,52.11
2023-05-05T00:41:26.153Z,52.22
2023-05-05T00:43:58.653Z,52.55
2023-05-05T00:46:31.144Z,52.56
2023-05-05T00:49:01.464Z,52.78
2023-05-05T00:51:32.232Z,52.42
2023-05-05T00:54:09.799Z,53.31
2023-05-05T00:56:40.441Z,52.77
2023-05-05T00:59:10.314Z,53.20
2023-05-05T01:01:40.212Z,53.10
2023-05-05T01:04:10.106Z,53.27
2023-05-05T01:06:58.818Z,54.33
2023-05-05T01:09:41.390Z,54.07
2023-05-05T01:12:18.237Z,53.58
2023-05-05T01:14:55.832Z,54.00
2023-05-05T01:17:38.028Z,54.63
2023-05-05T01:20:18.196Z,55.17
2023-05-05T01:22:56.972Z,54.87
2023-05-05T01:26:08.855Z,55.49
2023-05-05T01:28:59.492Z,55.94
2023-05-05T01:31:52.055Z,55.89
2023-05-05T01:34:27.042Z,54.83
2023-05-05T01:37:06.041Z,55.12
2023-05-05T01:39:37.918Z,55.54
2023-05-05T01:42:14.177Z,55.54
2023-05-05T01:44:47.862Z,56.12
2023-05-05T01:47:23.918Z,56.30
2023-05-05T01:49:54.581Z,55.95
2023-05-05T01:52:27.322Z,55.71
2023-05-05T01:55:01.304Z,56.03
2023-05-05T01:57:34.228Z,56.63
2023-05-05T02:00:06.639Z,56.72
2023-05-05T02:02:43.766Z,57.04
2023-05-05T02:05:15.731Z,56.67
2023-05-05T02:07:48.310Z,56.72
2023-05-05T02:10:28.432Z,56.82
2023-05-05T02:13:02.547Z,57.24
2023-05-05T02:15:34.573Z,57.02
2023-05-05T02:18:09.550Z,57.79
2023-05-05T02:20:41.833Z,58.04
2023-05-05T02:23:12.578Z,58.90
2023-05-05T02:25:46.353Z,59.66
2023-05-05T02:28:23.125Z,60.92
2023-05-05T02:30:58.785Z,61.27
2023-05-05T02:33:38.367Z,62.50
2023-05-05T02:36:16.224Z,62.21
2023-05-05T02:38:48.298Z,62.25
2023-05-05T02:41:22.015Z,63.09
2023-05-05T02:43:56.348Z,62.79
2023-05-05T02:46:26.337Z,63.65
2023-05-05T02:48:59.956Z,64.61
2023-05-05T02:51:30.328Z,64.11
2023-05-05T02:54:04.121Z,64.14
2023-05-05T02:56:51.661Z,64.55
2023-05-05T02:59:31.182Z,64.82
2023-05-05T03:02:13.706Z,64.66
2023-05-05T03:04:51.731Z,64.32
2023-05-05T03:07:28.106Z,64.22
2023-05-05T03:10:06.461Z,64.48
2023-05-05T03:12:41.512Z,64.40
2023-05-05T03:15:13.071Z,63.85
2023-05-05T03:17:43.740Z,64.21
2023-05-05T03:20:17.980Z,64.04
2023-05-05T03:22:48.145Z,64.24
2023-05-05T03:25:18.594Z,64.84
2023-05-05T03:27:48.635Z,65.07
2023-05-05T03:30:20.977Z,65.70
2023-05-05T03:32:51.004Z,65.69
2023-05-05T03:35:23.856Z,65.63
2023-05-05T03:37:53.974Z,65.77
2023-05-05T03:40:36.316Z,65.64
2023-05-05T03:43:13.422Z,65.58
2023-05-05T03:45:43.374Z,65.46
2023-05-05T03:48:13.574Z,65.05
2023-05-05T03:50:48.013Z,65.61
2023-05-05T03:53:18.001Z,65.50
2023-05-05T03:55:47.866Z,65.48
2023-05-05T03:58:17.800Z,65.55
2023-05-05T04:00:48.099Z,65.93
2023-05-05T04:03:18.285Z,66.23
2023-05-05T04:05:51.102Z,66.30
2023-05-05T04:08:21.152Z,66.35
2023-05-05T04:10:53.261Z,66.23
2023-05-05T04:13:23.143Z,66.31
2023-05-05T04:15:53.012Z,66.50
2023-05-05T04:18:23.461Z,66.81
2023-05-05T04:20:56.075Z,67.27
2023-05-05T04:23:26.246Z,66.96
2023-05-05T04:25:56.337Z,67.44
2023-05-05T04:28:26.521Z,67.57
2023-05-05T04:30:56.897Z,67.86
2023-05-05T04:33:27.105Z,68.20
2023-05-05T04:36:01.971Z,68.20
2023-05-05T04:38:32.105Z,68.16
2023-05-05T04:41:02.221Z,68.25
2023-05-05T04:43:34.931Z,68.32
2023-05-05T04:46:05.062Z,68.41
2023-05-05T04:48:37.261Z,68.52
2023-05-05T04:51:10.631Z,68.48
2023-05-05T04:53:40.662Z,68.44
2023-05-05T04:56:10.848Z,68.49
2023-05-05T04:58:40.799Z,68.62
2023-05-05T05:01:11.095Z,68.93
2023-05-05T05:03:41.272Z,69.24
2023-05-05T05:06:13.956Z,69.46
2023-05-05T05:08:43.882Z,69.47
2023-05-05T05:11:13.895Z,69.11
2023-05-05T05:13:43.992Z,69.64
2023-05-05T05:16:14.019Z,69.71
2023-05-05T05:18:45.884Z,70.69
2023-05-05T05:21:21.668Z,70.94
2023-05-05T05:23:51.676Z,70.93
2023-05-05T05:26:21.697Z,71.56
2023-05-05T05:28:53.115Z,72.16
2023-05-05T05:31:23.063Z,72.37
2023-05-05T05:33:53.106Z,72.93
2023-05-05T05:36:26.123Z,74.56
2023-05-05T05:38:56.050Z,73.99
2023-05-05T05:41:26.067Z,74.90
2023-05-05T05:43:56.090Z,74.63
2023-05-05T05:46:26.056Z,74.99
2023-05-05T05:48:56.727Z,74.96
2023-05-05T05:51:29.272Z,75.36
2023-05-05T05:53:59.403Z,74.89
2023-05-05T05:56:29.324Z,74.95
2023-05-05T05:59:00.496Z,75.73
2023-05-05T06:01:30.491Z,75.09
2023-05-05T06:04:00.509Z,75.79
2023-05-05T06:06:33.671Z,75.12
2023-05-05T06:09:03.748Z,74.76
2023-05-05T06:11:35.206Z,75.21
2023-05-05T06:14:05.268Z,74.99
2023-05-05T06:16:35.218Z,74.63
2023-05-05T06:19:05.509Z,74.33
2023-05-05T06:21:38.054Z,74.21
2023-05-05T06:24:08.812Z,73.33
2023-05-05T06:26:38.722Z,72.88
2023-05-05T06:29:10.524Z,72.87
2023-05-05T06:31:42.335Z,71.93
2023-05-05T06:34:12.470Z,71.48
2023-05-05T06:36:47.467Z,71.47
2023-05-05T06:39:17.329Z,70.68
2023-05-05T06:41:47.603Z,69.81
2023-05-05T06:44:17.461Z,69.64
2023-05-05T06:46:47.380Z,68.77
2023-05-05T06:49:18.011Z,68.58
2023-05-05T06:51:50.581Z,67.35
2023-05-05T06:54:20.435Z,67.55
2023-05-05T06:56:50.359Z,67.19
2023-05-05T06:59:20.305Z,67.02
2023-05-05T07:01:51.164Z,66.56
2023-05-05T07:04:21.779Z,66.27
2023-05-05T07:06:55.444Z,65.43
2023-05-05T07:09:25.442Z,64.93
2023-05-05T07:11:55.359Z,64.46
2023-05-05T07:14:25.408Z,64.50
2023-05-05T07:16:55.416Z,64.39
2023-05-05T07:19:25.427Z,64.61
2023-05-05T07:21:58.200Z,63.66
2023-05-05T07:24:28.178Z,64.04
2023-05-05T07:26:58.182Z,63.33
2023-05-05T07:29:28.113Z,63.57
2023-05-05T07:31:58.049Z,63.10
2023-05-05T07:34:28.128Z,62.62
2023-05-05T07:37:00.794Z,62.31
2023-05-05T07:39:30.718Z,62.26
2023-05-05T07:42:01.828Z,62.39
2023-05-05T07:44:32.022Z,62.32
2023-05-05T07:47:02.008Z,61.71
2023-05-05T07:49:31.920Z,61.72
2023-05-05T07:52:05.275Z,61.45
2023-05-05T07:54:38.232Z,60.86
2023-05-05T07:57:08.165Z,61.05
2023-05-05T07:59:38.832Z,60.88
2023-05-05T08:02:08.755Z,59.74
2023-05-05T08:04:38.825Z,59.20
2023-05-05T08:07:12.161Z,59.30
2023-05-05T08:09:41.988Z,58.36
2023-05-05T08:12:12.548Z,58.95
2023-05-05T08:14:43.725Z,58.16
2023-05-05T08:17:13.538Z,57.90
2023-05-05T08:19:45.592Z,56.73
2023-05-05T08:22:18.063Z,56.04
2023-05-05T08:24:48.043Z,55.78
2023-05-05T08:27:18.128Z,54.42
2023-05-05T08:29:48.100Z,55.35
2023-05-05T08:32:18.256Z,54.75
2023-05-05T08:34:48.263Z,53.81
2023-05-05T08:37:21.198Z,53.65
2023-05-05T08:39:51.131Z,52.90
2023-05-05T08:42:33.302Z,52.23
2023-05-05T08:45:07.447Z,52.56
2023-05-05T08:47:39.599Z,52.71
2023-05-05T08:50:13.833Z,52.68
2023-05-05T08:52:51.426Z,51.25
2023-05-05T08:55:27.585Z,50.16
2023-05-05T08:58:04.979Z,50.41
2023-05-05T09:00:35.585Z,49.90
2023-05-05T09:03:07.904Z,49.76
2023-05-05T09:05:39.064Z,49.38
2023-05-05T09:08:12.216Z,49.42
2023-05-05T09:10:44.932Z,49.29
2023-05-05T09:13:14.889Z,48.16
2023-05-05T09:15:45.075Z,49.17
2023-05-05T09:18:15.431Z,49.42
2023-05-05T09:20:45.397Z,48.48
2023-05-05T09:23:19.954Z,49.78
2023-05-05T09:26:06.148Z,48.70
2023-05-05T09:28:36.418Z,47.80
2023-05-05T09:31:24.036Z,47.53
2023-05-05T09:33:54.071Z,48.65
2023-05-05T09:36:44.310Z,47.34
2023-05-05T09:39:18.007Z,46.91
2023-05-05T09:41:48.168Z,47.11
2023-05-05T09:44:20.058Z,45.71
2023-05-05T09:46:55.519Z,44.80
2023-05-05T09:49:27.177Z,45.92
2023-05-05T09:51:57.939Z,45.55
2023-05-05T09:54:33.800Z,45.42
2023-05-05T09:57:03.650Z,45.17
2023-05-05T09:59:33.585Z,44.31
2023-05-05T10:02:14.605Z,44.34
2023-05-05T10:04:44.569Z,44.54
2023-05-05T10:07:25.955Z,44.08
2023-05-05T10:09:58.480Z,44.70
2023-05-05T10:12:28.810Z,45.65
2023-05-05T10:14:59.924Z,44.94
2023-05-05T10:17:33.390Z,45.22
2023-05-05T10:20:05.051Z,43.38
2023-05-05T10:22:37.676Z,43.27
2023-05-05T10:25:14.893Z,43.97
2023-05-05T10:27:47.943Z,44.11
2023-05-05T10:30:25.013Z,43.63
2023-05-05T10:33:12.267Z,44.06
2023-05-05T10:35:51.874Z,43.80
2023-05-05T10:38:24.714Z,42.96
2023-05-05T10:41:00.985Z,41.80
2023-05-05T10:43:32.322Z,42.21
2023-05-05T10:46:03.028Z,41.67
2023-05-05T10:48:40.483Z,42.13
2023-05-05T10:51:39.261Z,41.87
2023-05-05T10:54:17.959Z,41.37
2023-05-05T10:56:51.335Z,42.12
2023-05-05T10:59:51.140Z,42.21
2023-05-05T11:02:28.473Z,43.24
2023-05-05T11:05:21.737Z,41.41
2023-05-05T11:07:53.264Z,43.21
2023-05-05T11:10:24.044Z,42.30
2023-05-05T11:13:23.956Z,42.13
2023-05-05T11:15:55.641Z,42.83
2023-05-05T11:18:34.212Z,41.75
2023-05-05T11:21:15.837Z,42.86
2023-05-05T11:23:55.143Z,42.71
2023-05-05T11:26:52.985Z,43.39
2023-05-05T11:29:25.494Z,42.83
2023-05-05T11:32:16.670Z,42.47
2023-05-05T11:34:53.662Z,42.94
2023-05-05T11:37:27.012Z,43.48
2023-05-05T11:40:07.319Z,43.45
2023-05-05T11:42:37.541Z,43.52
2023-05-05T11:45:28.121Z,43.58
2023-05-05T11:48:26.983Z,44.12
2023-05-05T11:50:58.243Z,44.08
2023-05-05T11:53:28.332Z,44.99
2023-05-05T11:56:09.736Z,45.03
2023-05-05T11:58:39.672Z,45.77
2023-05-05T12:01:14.581Z,45.20
2023-05-05T12:03:45.952Z,45.37
2023-05-05T12:06:16.333Z,45.90
2023-05-05T12:08:46.222Z,46.34
2023-05-05T12:11:19.348Z,47.16
2023-05-05T12:13:49.404Z,50.09
2023-05-05T12:16:25.101Z,51.37
2023-05-05T12:19:06.537Z,52.75
2023-05-05T12:21:38.494Z,52.29
2023-05-05T12:24:09.644Z,53.39
2023-05-05T12:26:39.474Z,52.87
2023-05-05T12:29:09.344Z,53.46
2023-05-05T12:31:43.938Z,53.88
2023-05-05T12:34:14.556Z,53.28
2023-05-05T12:36:47.462Z,52.35
2023-05-05T12:39:18.279Z,52.55
2023-05-05T12:41:48.300Z,52.84
2023-05-05T12:44:18.346Z,52.66
2023-05-05T12:46:53.340Z,52.38
2023-05-05T12:49:23.123Z,52.24
2023-05-05T12:51:57.181Z,52.19
2023-05-05T12:54:29.866Z,52.21
2023-05-05T12:57:00.014Z,52.29
2023-05-05T12:59:33.303Z,51.49
2023-05-05T13:02:05.832Z,51.41
2023-05-05T13:04:38.461Z,50.79
2023-05-05T13:07:12.604Z,50.85
2023-05-05T13:09:42.702Z,51.74
2023-05-05T13:12:19.058Z,51.94
2023-05-05T13:14:49.775Z,52.53
2023-05-05T13:17:22.247Z,52.87
2023-05-05T13:19:52.444Z,52.66
2023-05-05T13:22:22.589Z,53.36
2023-05-05T13:24:53.036Z,52.98
2023-05-05T13:27:23.406Z,52.61
2023-05-05T13:29:53.498Z,52.21
2023-05-05T13:32:26.239Z,51.39
2023-05-05T13:34:56.198Z,51.59
2023-05-05T13:37:26.210Z,50.66
2023-05-05T13:39:59.691Z,50.87
2023-05-05T13:42:29.658Z,50.78
2023-05-05T13:44:59.498Z,50.98
2023-05-05T13:47:32.047Z,50.37
2023-05-05T13:50:02.209Z,50.44
2023-05-05T13:52:32.580Z,49.93
2023-05-05T13:55:03.566Z,49.37
2023-05-05T13:57:33.517Z,49.68
2023-05-05T14:00:04.674Z,49.27
2023-05-05T14:02:37.336Z,49.74
2023-05-05T14:05:08.080Z,49.71
2023-05-05T14:07:38.056Z,49.43
2023-05-05T14:10:09.654Z,49.39
2023-05-05T14:12:39.680Z,50.40
2023-05-05T14:15:11.940Z,52.40
2023-05-05T14:17:44.552Z,54.02
2023-05-05T14:20:15.689Z,55.87
2023-05-05T14:22:47.713Z,56.47
2023-05-05T14:25:19.525Z,56.97
2023-05-05T14:27:49.511Z,57.60
2023-05-05T14:30:20.153Z,58.70
2023-05-05T14:32:52.605Z,58.30
2023-05-05T14:35:22.521Z,58.46
2023-05-05T14:37:52.409Z,59.47
2023-05-05T14:40:22.410Z,59.72
2023-05-05T14:42:52.624Z,60.77
2023-05-05T14:45:26.585Z,61.76
2023-05-05T14:47:59.590Z,61.06
2023-05-05T14:50:29.730Z,61.98
2023-05-05T14:52:59.632Z,62.11
2023-05-05T14:55:33.148Z,62.25
2023-05-05T14:58:02.950Z,62.81
2023-05-05T15:00:32.853Z,63.61
2023-05-05T15:03:08.060Z,65.46
2023-05-05T15:05:40.650Z,65.98
2023-05-05T15:08:10.509Z,65.89
2023-05-05T15:10:40.605Z,66.41
2023-05-05T15:13:10.500Z,67.45
2023-05-05T15:15:40.796Z,67.22
2023-05-05T15:18:13.605Z,68.10
2023-05-05T15:20:43.553Z,68.25
2023-05-05T15:23:13.579Z,70.44
2023-05-05T15:25:43.685Z,69.78
2023-05-05T15:28:13.643Z,69.47
2023-05-05T15:30:43.539Z,69.57
2023-05-05T15:33:16.060Z,69.50
2023-05-05T15:35:46.235Z,69.01
2023-05-05T15:38:16.436Z,68.66
2023-05-05T15:40:50.099Z,69.65
2023-05-05T15:43:20.181Z,69.10
2023-05-05T15:45:50.384Z,69.45
2023-05-05T15:48:23.180Z,70.26
2023-05-05T15:50:54.959Z,69.89
2023-05-05T15:53:26.703Z,69.52
2023-05-05T15:55:57.009Z,69.47
2023-05-05T15:58:26.930Z,69.61
2023-05-05T16:00:56.972Z,69.12
2023-05-05T16:03:29.870Z,69.63
2023-05-05T16:05:59.882Z,69.62
2023-05-05T16:08:30.398Z,69.09
2023-05-05T16:11:00.315Z,69.89
2023-05-05T16:13:30.303Z,70.04
2023-05-05T16:16:00.204Z,70.88
2023-05-05T16:18:33.202Z,71.02
2023-05-05T16:21:03.328Z,71.12
2023-05-05T16:23:33.650Z,70.78
2023-05-05T16:26:04.629Z,70.87
2023-05-05T16:28:35.009Z,70.92
2023-05-05T16:31:04.871Z,70.14
2023-05-05T16:33:40.967Z,71.01
2023-05-05T16:36:13.168Z,70.85
2023-05-05T16:38:43.986Z,70.57
2023-05-05T16:41:14.273Z,70.28
2023-05-05T16:43:44.125Z,70.16
2023-05-05T16:46:14.115Z,69.88
2023-05-05T16:48:47.000Z,69.81
2023-05-05T16:51:17.112Z,69.87
2023-05-05T16:53:49.184Z,69.88
2023-05-05T16:56:19.082Z,69.72
2023-05-05T16:58:49.258Z,69.48
2023-05-05T17:01:19.222Z,69.67
2023-05-05T17:03:51.817Z,69.04
2023-05-05T17:06:24.392Z,69.71
2023-05-05T17:08:54.416Z,70.04
2023-05-05T17:11:24.461Z,69.68
2023-05-05T17:13:54.656Z,69.77
2023-05-05T17:16:24.553Z,69.71
2023-05-05T17:18:57.510Z,69.46
2023-05-05T17:21:28.219Z,69.38
2023-05-05T17:23:58.375Z,68.96
2023-05-05T17:26:28.413Z,69.17
2023-05-05T17:29:00.966Z,68.87
2023-05-05T17:31:31.263Z,68.87
2023-05-05T17:34:04.134Z,69.11
2023-05-05T17:36:34.429Z,68.45
2023-05-05T17:39:06.268Z,68.78
2023-05-05T17:41:36.301Z,69.15
2023-05-05T17:44:06.317Z,68.71
2023-05-05T17:46:36.683Z,68.77
2023-05-05T17:49:09.606Z,69.13
2023-05-05T17:51:39.909Z,69.06
2023-05-05T17:54:10.334Z,69.00
2023-05-05T17:56:40.280Z,68.72
2023-05-05T17:59:10.337Z,69.07
2023-05-05T18:01:40.340Z,69.42
2023-05-05T18:04:13.081Z,69.62
2023-05-05T18:06:43.107Z,71.23
2023-05-05T18:09:13.457Z,71.27
2023-05-05T18:11:43.581Z,71.48
2023-05-05T18:14:13.810Z,71.80
2023-05-05T18:16:48.888Z,71.33
2023-05-05T18:19:23.571Z,71.57
2023-05-05T18:21:55.773Z,71.65
2023-05-05T18:24:26.186Z,71.82
2023-05-05T18:26:56.912Z,71.82
2023-05-05T18:29:28.560Z,71.68
2023-05-05T18:31:58.518Z,71.55
2023-05-05T18:34:31.519Z,71.87
2023-05-05T18:37:01.544Z,72.50
2023-05-05T18:39:31.514Z,72.20
2023-05-05T18:42:03.417Z,72.37
2023-05-05T18:44:35.093Z,73.00
2023-05-05T18:47:05.349Z,73.09
2023-05-05T18:49:38.208Z,72.71
2023-05-05T18:52:08.389Z,72.56
2023-05-05T18:54:38.246Z,72.59
2023-05-05T18:57:08.438Z,72.91
2023-05-05T18:59:38.781Z,72.81
2023-05-05T19:02:09.398Z,72.99
2023-05-05T19:04:43.585Z,73.50
2023-05-05T19:07:23.897Z,73.30
2023-05-05T19:10:01.583Z,73.40
2023-05-05T19:12:31.569Z,73.34
2023-05-05T19:15:01.751Z,73.42
2023-05-05T19:17:31.762Z,73.23
2023-05-05T19:20:04.408Z,72.97
2023-05-05T19:22:35.877Z,72.96
2023-05-05T19:25:08.467Z,72.55
2023-05-05T19:27:38.952Z,72.21
2023-05-05T19:30:10.402Z,72.70
2023-05-05T19:32:40.295Z,73.09
2023-05-05T19:35:13.351Z,72.45
2023-05-05T19:37:46.660Z,73.08
2023-05-05T19:40:17.095Z,72.97
2023-05-05T19:42:46.969Z,72.49
2023-05-05T19:45:17.112Z,72.97
2023-05-05T19:47:47.196Z,72.90
2023-05-05T19:50:20.169Z,72.64
2023-05-05T19:52:50.039Z,72.64
2023-05-05T19:55:21.995Z,72.67
2023-05-05T19:57:51.929Z,72.56
2023-05-05T20:00:22.074Z,72.82
2023-05-05T20:02:52.202Z,72.68
2023-05-05T20:05:24.928Z,72.23
2023-05-05T20:07:54.960Z,72.41
2023-05-05T20:10:26.883Z,72.55
2023-05-05T20:12:56.870Z,72.62
2023-05-05T20:15:27.007Z,72.82
2023-05-05T20:17:56.884Z,72.87
2023-05-05T20:20:29.565Z,72.93
2023-05-05T20:22:59.574Z,73.09
2023-05-05T20:25:29.736Z,73.17
2023-05-05T20:27:59.571Z,73.26
2023-05-05T20:30:29.450Z,73.17
2023-05-05T20:32:59.360Z,73.61
2023-05-05T20:35:31.862Z,73.79
2023-05-05T20:38:03.852Z,74.09
2023-05-05T20:40:34.706Z,74.05
2023-05-05T20:43:04.828Z,73.93
2023-05-05T20:45:37.465Z,74.35
2023-05-05T20:48:10.062Z,74.27
2023-05-05T20:50:44.261Z,74.65
2023-05-05T20:53:15.427Z,74.53
2023-05-05T20:55:45.373Z,74.01
2023-05-05T20:58:18.414Z,74.44
2023-05-05T21:00:49.190Z,74.25
2023-05-05T21:03:19.653Z,74.14
2023-05-05T21:05:52.389Z,74.64
2023-05-05T21:08:22.393Z,74.53
2023-05-05T21:10:52.224Z,74.51
2023-05-05T21:13:23.011Z,74.32
2023-05-05T21:15:53.407Z,74.72
2023-05-05T21:18:27.783Z,74.88
2023-05-05T21:21:00.506Z,74.81
2023-05-05T21:23:33.380Z,74.85
2023-05-05T21:26:05.198Z,74.92
2023-05-05T21:28:36.543Z,75.09
2023-05-05T21:31:21.038Z,75.42
2023-05-05T21:33:52.101Z,75.17
2023-05-05T21:36:24.973Z,74.89
2023-05-05T21:38:56.056Z,75.18
2023-05-05T21:41:27.161Z,75.15
2023-05-05T21:43:57.128Z,75.17
2023-05-05T21:46:27.333Z,75.44
2023-05-05T21:48:58.510Z,75.79
2023-05-05T21:51:31.553Z,76.09
2023-05-05T21:54:01.426Z,75.95
2023-05-05T21:56:31.842Z,75.70
2023-05-05T21:59:02.287Z,76.07
2023-05-05T22:01:32.296Z,75.92
2023-05-05T22:04:02.299Z,75.90
2023-05-05T22:06:35.377Z,75.74
2023-05-05T22:09:05.406Z,75.96
2023-05-05T22:11:35.384Z,75.52
2023-05-05T22:14:05.446Z,75.28
2023-05-05T22:16:38.282Z,75.47
2023-05-05T22:19:08.362Z,75.75
2023-05-05T22:21:40.845Z,76.04
2023-05-05T22:24:10.823Z,75.84
2023-05-05T22:26:43.693Z,75.86
2023-05-05T22:29:14.155Z,75.67
2023-05-05T22:31:44.168Z,75.68
2023-05-05T22:34:14.720Z,75.61
2023-05-05T22:36:47.262Z,75.75
2023-05-05T22:39:18.956Z,75.56
2023-05-05T22:41:49.241Z,75.76
2023-05-05T22:44:19.162Z,76.00
2023-05-05T22:46:49.171Z,76.37
2023-05-05T22:49:19.101Z,76.05
2023-05-05T22:51:52.218Z,76.19
2023-05-05T22:54:24.933Z,76.30
2023-05-05T22:56:54.976Z,76.27
2023-05-05T22:59:27.276Z,76.29
2023-05-05T23:01:57.303Z,76.84
2023-05-05T23:04:27.340Z,76.84
2023-05-05T23:07:00.680Z,77.12
2023-05-05T23:09:30.744Z,76.86
2023-05-05T23:12:01.108Z,76.70
2023-05-05T23:14:31.295Z,76.82
2023-05-05T23:17:01.275Z,76.76
2023-05-05T23:19:32.798Z,76.88
2023-05-05T23:22:05.748Z,77.31
2023-05-05T23:24:35.919Z,77.31
2023-05-05T23:27:06.044Z,77.13
2023-05-05T23:29:36.236Z,77.28
2023-05-05T23:32:06.610Z,77.33
2023-05-05T23:34:36.648Z,77.62
2023-05-05T23:37:09.346Z,77.90
2023-05-05T23:39:39.543Z,77.93
2023-05-05T23:42:09.507Z,77.73
2023-05-05T23:44:39.700Z,77.71
2023-05-05T23:47:09.689Z,77.88
2023-05-05T23:49:39.901Z,77.82
2023-05-05T23:52:12.483Z,78.05
2023-05-05T23:54:45.815Z,78.04
2023-05-05T23:57:16.261Z,78.44
2023-05-05T23:59:46.513Z,78.36
